sensor_id;sensor_type;location;lat;lon;timestamp;temperature;humidity
8872;DHT22;4472;52.092;9.820;2023-03-21T00:01:50;9.00;99.90
8872;DHT22;4472;52.092;9.820;2023-03-21T00:04:37;9.00;99.90
8872;DHT22;4472;52.092;9.820;2023-03-21T00:07:26;9.00;99.90
8872;DHT22;4472;52.092;9.820;2023-03-21T00:10:13;9.00;99.90
8872;DHT22;4472;52.092;9.820;2023-03-21T00:13:00;9.00;99.90
8872;DHT22;4472;52.092;9.820;2023-03-21T00:15:48;9.00;99.90
8872;DHT22;4472;52.092;9.820;2023-03-21T00:18:40;9.00;99.90
8872;DHT22;4472;52.092;9.820;2023-03-21T00:21:27;9.00;99.90
8872;DHT22;4472;52.092;9.820;2023-03-21T00:24:19;9.00;99.90
8872;DHT22;4472;52.092;9.820;2023-03-21T00:27:07;9.00;99.90
8872;DHT22;4472;52.092;9.820;2023-03-21T00:29:54;9.00;99.90
8872;DHT22;4472;52.092;9.820;2023-03-21T00:32:41;9.00;99.90
8872;DHT22;4472;52.092;9.820;2023-03-21T00:35:29;8.90;99.90
8872;DHT22;4472;52.092;9.820;2023-03-21T00:38:16;9.00;99.90
8872;DHT22;4472;52.092;9.820;2023-03-21T00:41:05;8.10;99.90
8872;DHT22;4472;52.092;9.820;2023-03-21T00:43:52;8.90;99.90
8872;DHT22;4472;52.092;9.820;2023-03-21T00:46:40;9.00;99.90
8872;DHT22;4472;52.092;9.820;2023-03-21T00:49:28;8.90;99.90
8872;DHT22;4472;52.092;9.820;2023-03-21T00:52:19;8.90;99.90
8872;DHT22;4472;52.092;9.820;2023-03-21T00:55:08;8.90;99.90
8872;DHT22;4472;52.092;9.820;2023-03-21T00:57:57;8.90;99.90
8872;DHT22;4472;52.092;9.820;2023-03-21T01:00:44;8.90;99.90
8872;DHT22;4472;52.092;9.820;2023-03-21T01:03:32;8.90;99.90
8872;DHT22;4472;52.092;9.820;2023-03-21T01:06:27;8.90;99.90
8872;DHT22;4472;52.092;9.820;2023-03-21T01:09:17;8.90;99.90
8872;DHT22;4472;52.092;9.820;2023-03-21T01:12:04;8.90;99.90
8872;DHT22;4472;52.092;9.820;2023-03-21T01:14:52;8.90;99.90
8872;DHT22;4472;52.092;9.820;2023-03-21T01:17:40;8.90;99.90
8872;DHT22;4472;52.092;9.820;2023-03-21T01:20:27;8.90;99.90
8872;DHT22;4472;52.092;9.820;2023-03-21T01:23:15;8.90;99.90
8872;DHT22;4472;52.092;9.820;2023-03-21T01:26:02;7.80;99.90
8872;DHT22;4472;52.092;9.820;2023-03-21T01:28:50;8.90;99.90
8872;DHT22;4472;52.092;9.820;2023-03-21T01:31:38;8.90;99.90
8872;DHT22;4472;52.092;9.820;2023-03-21T01:34:25;8.80;99.90
8872;DHT22;4472;52.092;9.820;2023-03-21T01:37:14;8.80;99.90
8872;DHT22;4472;52.092;9.820;2023-03-21T01:40:03;8.80;99.90
8872;DHT22;4472;52.092;9.820;2023-03-21T01:42:51;8.80;99.90
8872;DHT22;4472;52.092;9.820;2023-03-21T01:49:11;8.80;99.90
8872;DHT22;4472;52.092;9.820;2023-03-21T01:52:02;8.90;99.90
8872;DHT22;4472;52.092;9.820;2023-03-21T01:54:52;8.90;99.90
8872;DHT22;4472;52.092;9.820;2023-03-21T01:57:43;8.90;99.90
8872;DHT22;4472;52.092;9.820;2023-03-21T02:00:32;8.90;99.90
8872;DHT22;4472;52.092;9.820;2023-03-21T02:03:19;8.90;99.90
8872;DHT22;4472;52.092;9.820;2023-03-21T02:06:10;8.90;99.90
8872;DHT22;4472;52.092;9.820;2023-03-21T02:09:02;8.90;99.90
8872;DHT22;4472;52.092;9.820;2023-03-21T02:11:50;8.90;99.90
8872;DHT22;4472;52.092;9.820;2023-03-21T02:14:38;8.90;99.90
8872;DHT22;4472;52.092;9.820;2023-03-21T02:17:30;8.90;99.90
8872;DHT22;4472;52.092;9.820;2023-03-21T02:20:39;9.00;99.90
8872;DHT22;4472;52.092;9.820;2023-03-21T02:24:03;9.00;99.90
8872;DHT22;4472;52.092;9.820;2023-03-21T02:27:07;9.00;99.90
8872;DHT22;4472;52.092;9.820;2023-03-21T02:30:25;9.00;99.90
8872;DHT22;4472;52.092;9.820;2023-03-21T02:33:56;9.00;99.90
8872;DHT22;4472;52.092;9.820;2023-03-21T02:36:52;9.00;99.90
8872;DHT22;4472;52.092;9.820;2023-03-21T02:39:51;9.00;99.90
8872;DHT22;4472;52.092;9.820;2023-03-21T02:42:54;10.40;99.90
8872;DHT22;4472;52.092;9.820;2023-03-21T02:45:50;9.10;99.90
8872;DHT22;4472;52.092;9.820;2023-03-21T02:48:42;9.00;99.90
8872;DHT22;4472;52.092;9.820;2023-03-21T02:51:32;9.00;99.90
8872;DHT22;4472;52.092;9.820;2023-03-21T02:54:22;9.00;99.90
8872;DHT22;4472;52.092;9.820;2023-03-21T02:57:10;9.10;99.90
8872;DHT22;4472;52.092;9.820;2023-03-21T02:59:59;9.10;99.90
8872;DHT22;4472;52.092;9.820;2023-03-21T03:02:47;9.10;99.90
8872;DHT22;4472;52.092;9.820;2023-03-21T03:05:39;9.10;99.90
8872;DHT22;4472;52.092;9.820;2023-03-21T03:08:34;9.10;99.90
8872;DHT22;4472;52.092;9.820;2023-03-21T03:11:27;9.10;99.90
8872;DHT22;4472;52.092;9.820;2023-03-21T03:14:32;9.10;99.90
8872;DHT22;4472;52.092;9.820;2023-03-21T03:17:42;9.10;99.90
8872;DHT22;4472;52.092;9.820;2023-03-21T03:20:38;9.10;99.90
8872;DHT22;4472;52.092;9.820;2023-03-21T03:23:36;9.10;99.90
8872;DHT22;4472;52.092;9.820;2023-03-21T03:26:32;9.10;99.90
8872;DHT22;4472;52.092;9.820;2023-03-21T03:29:21;9.10;99.90
8872;DHT22;4472;52.092;9.820;2023-03-21T03:32:11;9.10;99.90
8872;DHT22;4472;52.092;9.820;2023-03-21T03:34:59;9.10;99.90
8872;DHT22;4472;52.092;9.820;2023-03-21T03:37:49;9.10;99.90
8872;DHT22;4472;52.092;9.820;2023-03-21T03:40:40;9.10;99.90
8872;DHT22;4472;52.092;9.820;2023-03-21T03:43:35;9.10;99.90
8872;DHT22;4472;52.092;9.820;2023-03-21T03:46:29;9.10;99.90
8872;DHT22;4472;52.092;9.820;2023-03-21T03:49:21;9.10;99.90
8872;DHT22;4472;52.092;9.820;2023-03-21T03:52:12;9.10;99.90
8872;DHT22;4472;52.092;9.820;2023-03-21T03:55:00;9.00;99.90
8872;DHT22;4472;52.092;9.820;2023-03-21T03:57:48;9.10;99.90
8872;DHT22;4472;52.092;9.820;2023-03-21T04:00:38;9.10;99.90
8872;DHT22;4472;52.092;9.820;2023-03-21T04:03:25;9.00;99.90
8872;DHT22;4472;52.092;9.820;2023-03-21T04:06:13;9.00;99.90
8872;DHT22;4472;52.092;9.820;2023-03-21T04:09:00;9.10;99.90
8872;DHT22;4472;52.092;9.820;2023-03-21T04:11:49;9.10;99.90
8872;DHT22;4472;52.092;9.820;2023-03-21T04:14:36;9.10;99.90
8872;DHT22;4472;52.092;9.820;2023-03-21T04:17:25;9.10;99.90
8872;DHT22;4472;52.092;9.820;2023-03-21T04:20:12;9.20;99.90
8872;DHT22;4472;52.092;9.820;2023-03-21T04:22:59;9.20;99.90
8872;DHT22;4472;52.092;9.820;2023-03-21T04:25:47;9.20;99.90
8872;DHT22;4472;52.092;9.820;2023-03-21T04:28:36;9.20;99.90
8872;DHT22;4472;52.092;9.820;2023-03-21T04:31:24;9.20;99.90
8872;DHT22;4472;52.092;9.820;2023-03-21T04:34:17;9.20;99.90
8872;DHT22;4472;52.092;9.820;2023-03-21T04:37:08;9.20;99.90
8872;DHT22;4472;52.092;9.820;2023-03-21T04:39:58;9.20;99.90
8872;DHT22;4472;52.092;9.820;2023-03-21T04:42:46;9.20;99.90
8872;DHT22;4472;52.092;9.820;2023-03-21T04:45:33;9.10;99.90
8872;DHT22;4472;52.092;9.820;2023-03-21T04:48:20;9.20;99.90
8872;DHT22;4472;52.092;9.820;2023-03-21T04:51:10;9.20;99.90
8872;DHT22;4472;52.092;9.820;2023-03-21T04:53:58;9.10;99.90
8872;DHT22;4472;52.092;9.820;2023-03-21T04:56:45;9.10;99.90
8872;DHT22;4472;52.092;9.820;2023-03-21T04:59:33;9.10;99.90
8872;DHT22;4472;52.092;9.820;2023-03-21T05:02:20;9.10;99.90
8872;DHT22;4472;52.092;9.820;2023-03-21T05:05:08;9.10;99.90
8872;DHT22;4472;52.092;9.820;2023-03-21T05:07:58;9.20;99.90
8872;DHT22;4472;52.092;9.820;2023-03-21T05:10:45;9.20;99.90
8872;DHT22;4472;52.092;9.820;2023-03-21T05:13:32;9.20;99.90
8872;DHT22;4472;52.092;9.820;2023-03-21T05:16:19;9.20;99.90
8872;DHT22;4472;52.092;9.820;2023-03-21T05:19:10;9.20;99.90
8872;DHT22;4472;52.092;9.820;2023-03-21T05:21:58;9.20;99.90
8872;DHT22;4472;52.092;9.820;2023-03-21T05:24:50;9.20;99.90
8872;DHT22;4472;52.092;9.820;2023-03-21T05:30:11;9.20;99.90
8872;DHT22;4472;52.092;9.820;2023-03-21T05:32:58;9.20;99.90
8872;DHT22;4472;52.092;9.820;2023-03-21T05:35:49;9.20;99.90
8872;DHT22;4472;52.092;9.820;2023-03-21T05:38:36;9.20;99.90
8872;DHT22;4472;52.092;9.820;2023-03-21T05:41:25;9.20;99.90
8872;DHT22;4472;52.092;9.820;2023-03-21T05:44:12;9.20;99.90
8872;DHT22;4472;52.092;9.820;2023-03-21T05:46:59;9.20;99.90
8872;DHT22;4472;52.092;9.820;2023-03-21T05:49:49;9.30;99.90
8872;DHT22;4472;52.092;9.820;2023-03-21T05:52:37;9.30;99.90
8872;DHT22;4472;52.092;9.820;2023-03-21T05:55:24;9.40;99.90
8872;DHT22;4472;52.092;9.820;2023-03-21T05:58:12;9.40;99.90
8872;DHT22;4472;52.092;9.820;2023-03-21T06:01:00;9.50;99.90
8872;DHT22;4472;52.092;9.820;2023-03-21T06:03:47;9.50;99.90
8872;DHT22;4472;52.092;9.820;2023-03-21T06:06:34;9.50;99.90
8872;DHT22;4472;52.092;9.820;2023-03-21T06:09:22;9.60;99.90
8872;DHT22;4472;52.092;9.820;2023-03-21T06:12:09;9.70;99.90
8872;DHT22;4472;52.092;9.820;2023-03-21T06:14:58;9.70;99.90
8872;DHT22;4472;52.092;9.820;2023-03-21T06:17:46;9.70;99.90
8872;DHT22;4472;52.092;9.820;2023-03-21T06:20:33;9.70;99.90
8872;DHT22;4472;52.092;9.820;2023-03-21T06:23:20;9.70;99.90
8872;DHT22;4472;52.092;9.820;2023-03-21T06:26:08;9.70;99.90
8872;DHT22;4472;52.092;9.820;2023-03-21T06:28:55;9.70;99.90
8872;DHT22;4472;52.092;9.820;2023-03-21T06:31:43;9.70;99.90
8872;DHT22;4472;52.092;9.820;2023-03-21T06:34:30;9.80;99.90
8872;DHT22;4472;52.092;9.820;2023-03-21T06:37:18;9.80;99.90
8872;DHT22;4472;52.092;9.820;2023-03-21T06:40:06;9.80;99.90
8872;DHT22;4472;52.092;9.820;2023-03-21T06:42:54;9.80;99.90
8872;DHT22;4472;52.092;9.820;2023-03-21T06:45:41;9.90;99.90
8872;DHT22;4472;52.092;9.820;2023-03-21T06:48:30;9.90;99.90
8872;DHT22;4472;52.092;9.820;2023-03-21T06:51:17;10.00;99.90
8872;DHT22;4472;52.092;9.820;2023-03-21T06:54:04;10.00;99.90
8872;DHT22;4472;52.092;9.820;2023-03-21T06:56:51;10.00;99.90
8872;DHT22;4472;52.092;9.820;2023-03-21T06:59:39;10.00;99.90
8872;DHT22;4472;52.092;9.820;2023-03-21T07:02:28;10.00;99.90
8872;DHT22;4472;52.092;9.820;2023-03-21T07:05:17;10.00;99.90
8872;DHT22;4472;52.092;9.820;2023-03-21T07:08:04;10.00;99.90
8872;DHT22;4472;52.092;9.820;2023-03-21T07:10:55;10.00;99.90
8872;DHT22;4472;52.092;9.820;2023-03-21T07:13:43;10.00;99.90
8872;DHT22;4472;52.092;9.820;2023-03-21T07:16:30;10.10;99.90
8872;DHT22;4472;52.092;9.820;2023-03-21T07:19:17;10.10;99.90
8872;DHT22;4472;52.092;9.820;2023-03-21T07:22:06;10.10;99.90
8872;DHT22;4472;52.092;9.820;2023-03-21T07:24:53;10.10;99.90
8872;DHT22;4472;52.092;9.820;2023-03-21T07:27:40;10.20;99.90
8872;DHT22;4472;52.092;9.820;2023-03-21T07:30:28;10.20;99.90
8872;DHT22;4472;52.092;9.820;2023-03-21T07:33:15;10.20;99.90
8872;DHT22;4472;52.092;9.820;2023-03-21T07:36:02;10.20;99.90
8872;DHT22;4472;52.092;9.820;2023-03-21T07:38:51;10.30;99.90
8872;DHT22;4472;52.092;9.820;2023-03-21T07:41:38;10.30;99.90
8872;DHT22;4472;52.092;9.820;2023-03-21T07:44:26;10.30;99.90
8872;DHT22;4472;52.092;9.820;2023-03-21T07:47:14;10.30;99.90
8872;DHT22;4472;52.092;9.820;2023-03-21T07:50:01;10.30;99.90
8872;DHT22;4472;52.092;9.820;2023-03-21T07:52:49;10.40;99.90
8872;DHT22;4472;52.092;9.820;2023-03-21T07:55:37;10.40;99.90
8872;DHT22;4472;52.092;9.820;2023-03-21T07:58:25;10.50;99.90
8872;DHT22;4472;52.092;9.820;2023-03-21T08:01:13;10.60;99.90
8872;DHT22;4472;52.092;9.820;2023-03-21T08:04:00;10.70;99.90
8872;DHT22;4472;52.092;9.820;2023-03-21T08:06:49;10.90;99.90
8872;DHT22;4472;52.092;9.820;2023-03-21T08:09:36;11.00;99.90
8872;DHT22;4472;52.092;9.820;2023-03-21T08:12:24;11.00;99.90
8872;DHT22;4472;52.092;9.820;2023-03-21T08:15:12;11.20;99.90
8872;DHT22;4472;52.092;9.820;2023-03-21T08:17:59;11.30;99.90
8872;DHT22;4472;52.092;9.820;2023-03-21T08:20:50;11.50;99.90
8872;DHT22;4472;52.092;9.820;2023-03-21T08:23:37;11.60;99.90
8872;DHT22;4472;52.092;9.820;2023-03-21T08:26:25;11.70;99.90
8872;DHT22;4472;52.092;9.820;2023-03-21T08:29:13;11.80;99.90
8872;DHT22;4472;52.092;9.820;2023-03-21T08:32:00;11.90;99.90
8872;DHT22;4472;52.092;9.820;2023-03-21T08:34:48;11.90;99.90
8872;DHT22;4472;52.092;9.820;2023-03-21T08:37:35;12.00;99.90
8872;DHT22;4472;52.092;9.820;2023-03-21T08:40:22;12.10;99.90
8872;DHT22;4472;52.092;9.820;2023-03-21T08:43:10;12.10;99.90
8872;DHT22;4472;52.092;9.820;2023-03-21T08:45:59;12.10;99.90
8872;DHT22;4472;52.092;9.820;2023-03-21T08:48:48;12.10;99.90
8872;DHT22;4472;52.092;9.820;2023-03-21T08:51:36;12.20;99.90
8872;DHT22;4472;52.092;9.820;2023-03-21T08:54:23;12.30;99.90
8872;DHT22;4472;52.092;9.820;2023-03-21T08:57:10;12.40;99.90
8872;DHT22;4472;52.092;9.820;2023-03-21T08:59:57;12.40;99.90
8872;DHT22;4472;52.092;9.820;2023-03-21T09:02:47;12.40;99.90
8872;DHT22;4472;52.092;9.820;2023-03-21T09:05:36;12.50;99.90
8872;DHT22;4472;52.092;9.820;2023-03-21T09:08:23;12.50;99.90
8872;DHT22;4472;52.092;9.820;2023-03-21T09:11:11;12.60;99.90
8872;DHT22;4472;52.092;9.820;2023-03-21T09:13:58;12.60;99.90
8872;DHT22;4472;52.092;9.820;2023-03-21T09:16:45;12.70;99.90
8872;DHT22;4472;52.092;9.820;2023-03-21T09:19:34;12.90;99.90
8872;DHT22;4472;52.092;9.820;2023-03-21T09:22:21;13.10;99.90
8872;DHT22;4472;52.092;9.820;2023-03-21T09:25:08;13.20;99.90
8872;DHT22;4472;52.092;9.820;2023-03-21T09:27:56;13.30;99.90
8872;DHT22;4472;52.092;9.820;2023-03-21T09:30:43;13.50;99.90
8872;DHT22;4472;52.092;9.820;2023-03-21T09:33:31;13.50;99.90
8872;DHT22;4472;52.092;9.820;2023-03-21T09:36:21;13.50;99.90
8872;DHT22;4472;52.092;9.820;2023-03-21T09:39:09;13.50;99.90
8872;DHT22;4472;52.092;9.820;2023-03-21T09:42:13;13.60;99.90
8872;DHT22;4472;52.092;9.820;2023-03-21T09:45:10;13.80;99.90
8872;DHT22;4472;52.092;9.820;2023-03-21T09:48:00;13.80;99.90
8872;DHT22;4472;52.092;9.820;2023-03-21T09:50:48;13.90;99.90
8872;DHT22;4472;52.092;9.820;2023-03-21T09:53:39;13.80;99.90
8872;DHT22;4472;52.092;9.820;2023-03-21T09:56:27;13.70;99.90
8872;DHT22;4472;52.092;9.820;2023-03-21T09:59:21;13.70;99.90
8872;DHT22;4472;52.092;9.820;2023-03-21T10:02:28;13.70;99.90
8872;DHT22;4472;52.092;9.820;2023-03-21T10:05:23;13.60;99.90
8872;DHT22;4472;52.092;9.820;2023-03-21T10:08:15;13.60;99.90
8872;DHT22;4472;52.092;9.820;2023-03-21T10:11:11;13.60;99.90
8872;DHT22;4472;52.092;9.820;2023-03-21T10:14:04;13.70;99.90
8872;DHT22;4472;52.092;9.820;2023-03-21T10:16:56;13.50;99.90
8872;DHT22;4472;52.092;9.820;2023-03-21T10:19:45;13.50;99.90
8872;DHT22;4472;52.092;9.820;2023-03-21T10:22:35;13.30;99.90
8872;DHT22;4472;52.092;9.820;2023-03-21T10:25:27;13.20;99.90
8872;DHT22;4472;52.092;9.820;2023-03-21T10:28:20;13.10;99.90
8872;DHT22;4472;52.092;9.820;2023-03-21T10:31:10;13.00;99.90
8872;DHT22;4472;52.092;9.820;2023-03-21T10:34:08;12.90;99.90
8872;DHT22;4472;52.092;9.820;2023-03-21T10:36:58;12.70;99.90
8872;DHT22;4472;52.092;9.820;2023-03-21T10:39:49;12.60;99.90
8872;DHT22;4472;52.092;9.820;2023-03-21T10:42:36;12.40;99.90
8872;DHT22;4472;52.092;9.820;2023-03-21T10:45:26;12.40;99.90
8872;DHT22;4472;52.092;9.820;2023-03-21T10:48:14;12.20;99.90
8872;DHT22;4472;52.092;9.820;2023-03-21T10:51:01;12.10;99.90
8872;DHT22;4472;52.092;9.820;2023-03-21T10:53:54;12.00;99.90
8872;DHT22;4472;52.092;9.820;2023-03-21T10:56:46;11.90;99.90
8872;DHT22;4472;52.092;9.820;2023-03-21T10:59:38;11.90;99.90
8872;DHT22;4472;52.092;9.820;2023-03-21T11:02:29;12.00;99.90
8872;DHT22;4472;52.092;9.820;2023-03-21T11:05:21;12.10;99.90
8872;DHT22;4472;52.092;9.820;2023-03-21T11:08:12;12.20;99.90
8872;DHT22;4472;52.092;9.820;2023-03-21T11:11:02;12.20;99.90
8872;DHT22;4472;52.092;9.820;2023-03-21T11:13:57;12.30;99.90
8872;DHT22;4472;52.092;9.820;2023-03-21T11:16:44;12.30;99.90
8872;DHT22;4472;52.092;9.820;2023-03-21T11:19:35;12.40;99.90
8872;DHT22;4472;52.092;9.820;2023-03-21T11:22:24;12.50;99.90
8872;DHT22;4472;52.092;9.820;2023-03-21T11:25:21;12.60;99.90
8872;DHT22;4472;52.092;9.820;2023-03-21T11:28:13;12.70;99.90
8872;DHT22;4472;52.092;9.820;2023-03-21T11:31:02;12.80;99.90
8872;DHT22;4472;52.092;9.820;2023-03-21T11:33:52;12.80;99.90
8872;DHT22;4472;52.092;9.820;2023-03-21T11:36:41;12.80;99.90
8872;DHT22;4472;52.092;9.820;2023-03-21T11:39:34;12.80;99.90
8872;DHT22;4472;52.092;9.820;2023-03-21T11:42:26;12.70;99.90
8872;DHT22;4472;52.092;9.820;2023-03-21T11:45:19;12.70;99.90
8872;DHT22;4472;52.092;9.820;2023-03-21T11:48:12;12.80;99.90
8872;DHT22;4472;52.092;9.820;2023-03-21T11:51:03;12.90;99.90
8872;DHT22;4472;52.092;9.820;2023-03-21T11:53:59;12.80;99.90
8872;DHT22;4472;52.092;9.820;2023-03-21T11:56:52;12.80;99.90
8872;DHT22;4472;52.092;9.820;2023-03-21T11:59:43;12.80;99.90
8872;DHT22;4472;52.092;9.820;2023-03-21T12:06:00;12.60;99.90
8872;DHT22;4472;52.092;9.820;2023-03-21T12:08:57;12.50;99.90
8872;DHT22;4472;52.092;9.820;2023-03-21T12:11:57;12.50;99.90
8872;DHT22;4472;52.092;9.820;2023-03-21T12:14:54;12.50;99.90
8872;DHT22;4472;52.092;9.820;2023-03-21T12:17:53;12.50;99.90
8872;DHT22;4472;52.092;9.820;2023-03-21T12:20:46;12.40;99.90
8872;DHT22;4472;52.092;9.820;2023-03-21T12:23:41;12.40;99.90
8872;DHT22;4472;52.092;9.820;2023-03-21T12:26:41;12.30;99.90
8872;DHT22;4472;52.092;9.820;2023-03-21T12:29:40;12.30;99.90
8872;DHT22;4472;52.092;9.820;2023-03-21T12:32:41;12.30;99.90
8872;DHT22;4472;52.092;9.820;2023-03-21T12:35:41;12.30;99.90
8872;DHT22;4472;52.092;9.820;2023-03-21T12:38:38;12.30;99.90
8872;DHT22;4472;52.092;9.820;2023-03-21T12:41:33;12.30;99.90
8872;DHT22;4472;52.092;9.820;2023-03-21T12:44:24;12.20;99.90
8872;DHT22;4472;52.092;9.820;2023-03-21T12:47:17;12.10;99.90
8872;DHT22;4472;52.092;9.820;2023-03-21T12:50:13;12.10;99.90
8872;DHT22;4472;52.092;9.820;2023-03-21T12:53:10;12.20;99.90
8872;DHT22;4472;52.092;9.820;2023-03-21T12:56:01;12.20;99.90
8872;DHT22;4472;52.092;9.820;2023-03-21T12:58:53;12.20;99.90
8872;DHT22;4472;52.092;9.820;2023-03-21T13:01:44;12.20;99.90
8872;DHT22;4472;52.092;9.820;2023-03-21T13:04:39;12.20;99.90
8872;DHT22;4472;52.092;9.820;2023-03-21T13:07:30;12.20;99.90
8872;DHT22;4472;52.092;9.820;2023-03-21T13:10:20;12.10;99.90
8872;DHT22;4472;52.092;9.820;2023-03-21T13:13:13;12.20;99.90
8872;DHT22;4472;52.092;9.820;2023-03-21T13:16:08;12.10;99.90
8872;DHT22;4472;52.092;9.820;2023-03-21T13:19:03;12.20;99.90
8872;DHT22;4472;52.092;9.820;2023-03-21T13:21:58;12.20;99.90
8872;DHT22;4472;52.092;9.820;2023-03-21T13:24:48;12.20;99.90
8872;DHT22;4472;52.092;9.820;2023-03-21T13:27:37;12.30;99.90
8872;DHT22;4472;52.092;9.820;2023-03-21T13:30:26;12.20;99.90
8872;DHT22;4472;52.092;9.820;2023-03-21T13:33:15;12.20;99.90
8872;DHT22;4472;52.092;9.820;2023-03-21T13:36:08;12.30;99.90
8872;DHT22;4472;52.092;9.820;2023-03-21T13:39:00;12.20;99.90
8872;DHT22;4472;52.092;9.820;2023-03-21T13:41:50;12.20;99.90
8872;DHT22;4472;52.092;9.820;2023-03-21T13:44:42;12.20;99.90
8872;DHT22;4472;52.092;9.820;2023-03-21T13:47:39;12.20;99.90
8872;DHT22;4472;52.092;9.820;2023-03-21T13:50:30;12.10;99.90
8872;DHT22;4472;52.092;9.820;2023-03-21T13:53:31;12.20;99.90
8872;DHT22;4472;52.092;9.820;2023-03-21T13:56:22;12.10;99.90
8872;DHT22;4472;52.092;9.820;2023-03-21T13:59:11;12.10;99.90
8872;DHT22;4472;52.092;9.820;2023-03-21T14:02:00;12.00;99.90
8872;DHT22;4472;52.092;9.820;2023-03-21T14:04:57;12.00;99.90
8872;DHT22;4472;52.092;9.820;2023-03-21T14:07:46;12.00;99.90
8872;DHT22;4472;52.092;9.820;2023-03-21T14:10:38;12.00;99.90
8872;DHT22;4472;52.092;9.820;2023-03-21T14:13:26;12.00;99.90
8872;DHT22;4472;52.092;9.820;2023-03-21T14:16:15;12.10;99.90
8872;DHT22;4472;52.092;9.820;2023-03-21T14:19:04;12.10;99.90
8872;DHT22;4472;52.092;9.820;2023-03-21T14:21:52;12.10;99.90
8872;DHT22;4472;52.092;9.820;2023-03-21T14:24:39;12.10;99.90
8872;DHT22;4472;52.092;9.820;2023-03-21T14:27:30;12.10;99.90
8872;DHT22;4472;52.092;9.820;2023-03-21T14:30:21;12.10;99.90
8872;DHT22;4472;52.092;9.820;2023-03-21T14:33:14;12.10;99.90
8872;DHT22;4472;52.092;9.820;2023-03-21T14:36:06;12.10;99.90
8872;DHT22;4472;52.092;9.820;2023-03-21T14:39:03;12.10;99.90
8872;DHT22;4472;52.092;9.820;2023-03-21T14:41:53;12.10;99.90
8872;DHT22;4472;52.092;9.820;2023-03-21T14:44:48;12.10;99.90
8872;DHT22;4472;52.092;9.820;2023-03-21T14:47:35;12.10;99.90
8872;DHT22;4472;52.092;9.820;2023-03-21T14:50:27;12.20;99.90
8872;DHT22;4472;52.092;9.820;2023-03-21T14:53:19;12.20;99.90
8872;DHT22;4472;52.092;9.820;2023-03-21T14:56:11;12.20;99.90
8872;DHT22;4472;52.092;9.820;2023-03-21T14:59:02;12.20;99.90
8872;DHT22;4472;52.092;9.820;2023-03-21T15:01:51;12.20;99.90
8872;DHT22;4472;52.092;9.820;2023-03-21T15:04:39;12.10;99.90
8872;DHT22;4472;52.092;9.820;2023-03-21T15:07:28;12.10;99.90
8872;DHT22;4472;52.092;9.820;2023-03-21T15:10:17;12.10;99.90
8872;DHT22;4472;52.092;9.820;2023-03-21T15:13:13;12.10;99.90
8872;DHT22;4472;52.092;9.820;2023-03-21T15:16:01;12.10;99.90
8872;DHT22;4472;52.092;9.820;2023-03-21T15:18:50;12.10;99.90
8872;DHT22;4472;52.092;9.820;2023-03-21T15:21:39;12.20;99.90
8872;DHT22;4472;52.092;9.820;2023-03-21T15:24:30;12.20;99.90
8872;DHT22;4472;52.092;9.820;2023-03-21T15:27:19;12.20;99.90
8872;DHT22;4472;52.092;9.820;2023-03-21T15:30:18;12.20;99.90
8872;DHT22;4472;52.092;9.820;2023-03-21T15:33:07;12.10;99.90
8872;DHT22;4472;52.092;9.820;2023-03-21T15:35:58;12.10;99.90
8872;DHT22;4472;52.092;9.820;2023-03-21T15:38:45;12.10;99.90
8872;DHT22;4472;52.092;9.820;2023-03-21T15:41:34;12.10;99.90
8872;DHT22;4472;52.092;9.820;2023-03-21T15:44:21;12.10;99.90
8872;DHT22;4472;52.092;9.820;2023-03-21T15:47:12;12.00;99.90
8872;DHT22;4472;52.092;9.820;2023-03-21T15:50:07;12.00;99.90
8872;DHT22;4472;52.092;9.820;2023-03-21T15:52:58;12.00;99.90
8872;DHT22;4472;52.092;9.820;2023-03-21T15:55:47;12.00;99.90
8872;DHT22;4472;52.092;9.820;2023-03-21T15:58:39;12.00;99.90
8872;DHT22;4472;52.092;9.820;2023-03-21T16:01:29;12.00;99.90
8872;DHT22;4472;52.092;9.820;2023-03-21T16:04:19;12.00;99.90
8872;DHT22;4472;52.092;9.820;2023-03-21T16:07:13;12.00;99.90
8872;DHT22;4472;52.092;9.820;2023-03-21T16:10:03;11.90;99.90
8872;DHT22;4472;52.092;9.820;2023-03-21T16:12:50;11.90;99.90
8872;DHT22;4472;52.092;9.820;2023-03-21T16:15:38;11.80;99.90
8872;DHT22;4472;52.092;9.820;2023-03-21T16:18:25;11.80;99.90
8872;DHT22;4472;52.092;9.820;2023-03-21T16:21:16;11.80;99.90
8872;DHT22;4472;52.092;9.820;2023-03-21T16:24:05;11.70;99.90
8872;DHT22;4472;52.092;9.820;2023-03-21T16:26:54;11.70;99.90
8872;DHT22;4472;52.092;9.820;2023-03-21T16:29:41;11.70;99.90
8872;DHT22;4472;52.092;9.820;2023-03-21T16:32:28;11.60;99.90
8872;DHT22;4472;52.092;9.820;2023-03-21T16:35:16;11.60;99.90
8872;DHT22;4472;52.092;9.820;2023-03-21T16:38:03;11.60;99.90
8872;DHT22;4472;52.092;9.820;2023-03-21T16:40:50;11.60;99.90
8872;DHT22;4472;52.092;9.820;2023-03-21T16:43:39;11.70;99.90
8872;DHT22;4472;52.092;9.820;2023-03-21T16:46:28;11.70;99.90
8872;DHT22;4472;52.092;9.820;2023-03-21T16:49:18;11.70;99.90
8872;DHT22;4472;52.092;9.820;2023-03-21T16:52:05;11.70;99.90
8872;DHT22;4472;52.092;9.820;2023-03-21T16:54:52;11.60;99.90
8872;DHT22;4472;52.092;9.820;2023-03-21T16:57:40;11.60;99.90
8872;DHT22;4472;52.092;9.820;2023-03-21T17:00:29;11.60;99.90
8872;DHT22;4472;52.092;9.820;2023-03-21T17:03:17;11.50;99.90
8872;DHT22;4472;52.092;9.820;2023-03-21T17:06:04;11.50;99.90
8872;DHT22;4472;52.092;9.820;2023-03-21T17:08:52;11.50;99.90
8872;DHT22;4472;52.092;9.820;2023-03-21T17:11:40;11.50;99.90
8872;DHT22;4472;52.092;9.820;2023-03-21T17:14:27;11.50;99.90
8872;DHT22;4472;52.092;9.820;2023-03-21T17:17:16;11.50;99.90
8872;DHT22;4472;52.092;9.820;2023-03-21T17:20:15;11.50;99.90
8872;DHT22;4472;52.092;9.820;2023-03-21T17:23:03;11.50;99.90
8872;DHT22;4472;52.092;9.820;2023-03-21T17:25:50;11.60;99.90
8872;DHT22;4472;52.092;9.820;2023-03-21T17:28:37;11.60;99.90
8872;DHT22;4472;52.092;9.820;2023-03-21T17:31:26;11.50;99.90
8872;DHT22;4472;52.092;9.820;2023-03-21T17:34:15;11.60;99.90
8872;DHT22;4472;52.092;9.820;2023-03-21T17:37:02;11.50;99.90
8872;DHT22;4472;52.092;9.820;2023-03-21T17:39:49;11.50;99.90
8872;DHT22;4472;52.092;9.820;2023-03-21T17:42:36;11.50;99.90
8872;DHT22;4472;52.092;9.820;2023-03-21T17:45:24;11.40;99.90
8872;DHT22;4472;52.092;9.820;2023-03-21T17:48:12;11.40;99.90
8872;DHT22;4472;52.092;9.820;2023-03-21T17:51:00;11.40;99.90
8872;DHT22;4472;52.092;9.820;2023-03-21T17:53:49;11.30;99.90
8872;DHT22;4472;52.092;9.820;2023-03-21T17:56:36;11.30;99.90
8872;DHT22;4472;52.092;9.820;2023-03-21T17:59:25;11.30;99.90
8872;DHT22;4472;52.092;9.820;2023-03-21T18:02:12;11.30;99.90
8872;DHT22;4472;52.092;9.820;2023-03-21T18:05:00;11.30;99.90
8872;DHT22;4472;52.092;9.820;2023-03-21T18:07:49;11.20;99.90
8872;DHT22;4472;52.092;9.820;2023-03-21T18:10:36;11.20;99.90
8872;DHT22;4472;52.092;9.820;2023-03-21T18:13:24;11.20;99.90
8872;DHT22;4472;52.092;9.820;2023-03-21T18:16:13;11.20;99.90
8872;DHT22;4472;52.092;9.820;2023-03-21T18:19:00;11.10;99.90
8872;DHT22;4472;52.092;9.820;2023-03-21T18:21:48;11.00;99.90
8872;DHT22;4472;52.092;9.820;2023-03-21T18:24:36;11.00;99.90
8872;DHT22;4472;52.092;9.820;2023-03-21T18:27:23;11.00;99.90
8872;DHT22;4472;52.092;9.820;2023-03-21T18:30:14;10.90;99.90
8872;DHT22;4472;52.092;9.820;2023-03-21T18:33:02;10.90;99.90
8872;DHT22;4472;52.092;9.820;2023-03-21T18:35:49;10.90;99.90
8872;DHT22;4472;52.092;9.820;2023-03-21T18:38:37;10.80;99.90
8872;DHT22;4472;52.092;9.820;2023-03-21T18:41:25;10.80;99.90
8872;DHT22;4472;52.092;9.820;2023-03-21T18:44:13;10.80;99.90
8872;DHT22;4472;52.092;9.820;2023-03-21T18:47:02;10.70;99.90